Terminal Aerodrome Forecast
Issued by NWS Bismarck, ND

Home | Current Version | Previous Version | Text Only | Print | Product List | Glossary Off
Versions: 1 2 3 4 5 6 7 8 9 10 11

937
FTUS43 KBIS 241136
TAFISN
TAF
KISN 241136Z 2412/2512 06007KT 2SM -SN BR OVC006
     FM241500 06008KT P6SM VCSH OVC008
     FM241800 05007KT P6SM OVC012
     FM250500 06008KT P6SM OVC008=

USA.gov is the U.S. government's official web portal to all federal, state and local government web resources and services.